PWSweather.com
Personal Weather Stations
Station Observations
KILDUNLA3
Devonshire, Dunlap, IL 61525

DevonshireDunlap, IL 61525

Lat: 40.82881546, Lon: -89.62155914

Elevation: 758

Station Type: Oregon Scientific WMR100

http://jimroal.com

Latest ConditionsUpdated 7:18:46 PM CDT Friday, May 24, 2019
Currently Today's Max Today's Min Today's Average
Temperature 78.2°F25.7°C 79.8°F26.6°C 60.1°F15.6°C 67.5°F19.7°C
Dew Point 62.4°F16.9°C 67.5°F19.7°C 44.9°F7.2°C 54.3°F12.4°C
Winds 1.5 mph S2.4 kmh S 6.2 mph -10.0 kmh - - 2.4 mph 3.9 kmh
Wind Gusts 3.8 mph6.1 kmh 10.1 mph16.3 kmh - -
Humidity 59% 84% 49% 63%
Pressure 29.81 in1009.5 mb 30.01 in1016.3 mb 29.81 in1009.5 mb -
Precipitation - 0.08 in2.0 mm - -
Hour Temp Dew Point Humidity Winds Wind Gusts Pressure Precip Precip Rate Daily Precip Total
07:18 PM 78.2°F25.7°C 62.4°F16.9°C 59% 1.5 mph S2.4 kmh S 3.8 mph6.1 kmh 29.81 in1009.5 mb 0.00 in0.0 mm 0.00 in0.0 mm 0.08 in2.0 mm
07:13 PM 78.3°F25.7°C 62.5°F16.9°C 59% 1.9 mph SSE3.1 kmh SSE 3.6 mph5.8 kmh 29.81 in1009.5 mb 0.00 in0.0 mm 0.00 in0.0 mm 0.08 in2.0 mm
07:08 PM 78.3°F25.7°C 62.3°F16.8°C 58% 1.6 mph S2.6 kmh S 3.6 mph5.8 kmh 29.81 in1009.5 mb 0.00 in0.0 mm 0.00 in0.0 mm 0.08 in2.0 mm
07:03 PM 78.4°F25.8°C 62.1°F16.7°C 57% 0.5 mph S0.8 kmh S 4.3 mph6.9 kmh 29.81 in1009.5 mb 0.00 in0.0 mm 0.00 in0.0 mm 0.08 in2.0 mm
06:58 PM 78.7°F25.9°C 62.3°F16.8°C 57% 1.9 mph S3.1 kmh S 4.3 mph6.9 kmh 29.82 in1009.8 mb 0.00 in0.0 mm 0.00 in0.0 mm 0.08 in2.0 mm
06:53 PM 78.8°F26.0°C 62.0°F16.7°C 56% 2.2 mph S3.5 kmh S 4.7 mph7.6 kmh 29.82 in1009.8 mb 0.00 in0.0 mm 0.00 in0.0 mm 0.08 in2.0 mm
06:48 PM 79.0°F26.1°C 62.0°F16.7°C 56% 2.3 mph S3.7 kmh S 4.9 mph7.9 kmh 29.82 in1009.8 mb 0.00 in0.0 mm 0.00 in0.0 mm 0.08 in2.0 mm
06:43 PM 79.2°F26.2°C 61.7°F16.5°C 55% 2.6 mph SSW4.2 kmh SSW 6.3 mph10.1 kmh 29.82 in1009.8 mb 0.00 in0.0 mm 0.00 in0.0 mm 0.08 in2.0 mm
06:38 PM 79.4°F26.3°C 61.9°F16.6°C 55% 1.5 mph SW2.4 kmh SW 7.6 mph12.2 kmh 29.82 in1009.8 mb 0.00 in0.0 mm 0.00 in0.0 mm 0.08 in2.0 mm
06:33 PM 79.7°F26.5°C 62.2°F16.8°C 55% 2.4 mph SSE3.9 kmh SSE 7.6 mph12.2 kmh 29.82 in1009.8 mb 0.00 in0.0 mm 0.00 in0.0 mm 0.08 in2.0 mm
06:28 PM 79.7°F26.5°C 62.2°F16.8°C 55% 3.4 mph S5.5 kmh S 8.1 mph13.0 kmh 29.82 in1009.8 mb 0.00 in0.0 mm 0.00 in0.0 mm 0.08 in2.0 mm
06:23 PM 79.8°F26.6°C 62.3°F16.8°C 55% 3.8 mph S6.1 kmh S 8.1 mph13.0 kmh 29.82 in1009.8 mb 0.00 in0.0 mm 0.00 in0.0 mm 0.08 in2.0 mm
06:18 PM 79.7°F26.5°C 62.2°F16.8°C 55% 3.3 mph S5.3 kmh S 8.1 mph13.0 kmh 29.83 in1010.2 mb 0.00 in0.0 mm 0.00 in0.0 mm 0.08 in2.0 mm
06:13 PM 79.7°F26.5°C 62.2°F16.8°C 55% 3.8 mph S6.1 kmh S 8.1 mph13.0 kmh 29.83 in1010.2 mb 0.00 in0.0 mm 0.00 in0.0 mm 0.08 in2.0 mm
06:08 PM 79.7°F26.5°C 61.6°F16.4°C 54% 3.5 mph S5.6 kmh S 8.1 mph13.0 kmh 29.83 in1010.2 mb 0.00 in0.0 mm 0.00 in0.0 mm 0.08 in2.0 mm
06:03 PM 79.7°F26.5°C 61.6°F16.4°C 54% 4.4 mph S7.1 kmh S 8.1 mph13.0 kmh 29.83 in1010.2 mb 0.00 in0.0 mm 0.00 in0.0 mm 0.08 in2.0 mm
05:58 PM 79.5°F26.4°C 61.4°F16.3°C 54% 4.1 mph S6.6 kmh S 7.4 mph11.9 kmh 29.83 in1010.2 mb 0.00 in0.0 mm 0.00 in0.0 mm 0.08 in2.0 mm
05:53 PM 79.5°F26.4°C 61.4°F16.3°C 54% 4.3 mph S6.9 kmh S 6.5 mph10.5 kmh 29.83 in1010.2 mb 0.00 in0.0 mm 0.00 in0.0 mm 0.08 in2.0 mm
05:48 PM 79.4°F26.3°C 61.4°F16.3°C 54% 4.1 mph S6.6 kmh S 7.4 mph11.9 kmh 29.83 in1010.2 mb 0.00 in0.0 mm 0.00 in0.0 mm 0.08 in2.0 mm
05:43 PM 79.2°F26.2°C 61.1°F16.2°C 54% 2.7 mph S4.3 kmh S 7.4 mph11.9 kmh 29.83 in1010.2 mb 0.00 in0.0 mm 0.00 in0.0 mm 0.08 in2.0 mm
05:38 PM 79.1°F26.2°C 61.0°F16.1°C 54% 4.2 mph S6.8 kmh S 7.2 mph11.6 kmh 29.83 in1010.2 mb 0.00 in0.0 mm 0.00 in0.0 mm 0.08 in2.0 mm
05:33 PM 79.0°F26.1°C 60.9°F16.1°C 54% 3.2 mph SSE5.1 kmh SSE 6.0 mph9.7 kmh 29.83 in1010.2 mb 0.00 in0.0 mm 0.00 in0.0 mm 0.08 in2.0 mm
05:28 PM 79.0°F26.1°C 60.9°F16.1°C 54% 3.7 mph S6.0 kmh S 6.0 mph9.7 kmh 29.84 in1010.5 mb 0.00 in0.0 mm 0.00 in0.0 mm 0.08 in2.0 mm
05:23 PM 78.9°F26.1°C 60.9°F16.1°C 54% 2.8 mph S4.5 kmh S 4.7 mph7.6 kmh 29.84 in1010.5 mb 0.00 in0.0 mm 0.00 in0.0 mm 0.08 in2.0 mm
05:18 PM 78.8°F26.0°C 60.8°F16.0°C 54% 3.1 mph S5.0 kmh S 6.0 mph9.7 kmh 29.84 in1010.5 mb 0.00 in0.0 mm 0.00 in0.0 mm 0.08 in2.0 mm
05:13 PM 78.8°F26.0°C 60.8°F16.0°C 54% 3.5 mph SSE5.6 kmh SSE 6.0 mph9.7 kmh 29.85 in1010.8 mb 0.00 in0.0 mm 0.00 in0.0 mm 0.08 in2.0 mm
05:08 PM 78.8°F26.0°C 60.5°F15.8°C 53% 2.0 mph S3.2 kmh S 5.8 mph9.3 kmh 29.85 in1010.8 mb 0.00 in0.0 mm 0.00 in0.0 mm 0.08 in2.0 mm
05:03 PM 78.7°F25.9°C 60.3°F15.7°C 53% 3.4 mph S5.5 kmh S 5.8 mph9.3 kmh 29.86 in1011.2 mb 0.00 in0.0 mm 0.00 in0.0 mm 0.08 in2.0 mm
04:58 PM 78.6°F25.9°C 60.2°F15.7°C 53% 2.5 mph S4.0 kmh S 4.9 mph7.9 kmh 29.85 in1010.8 mb 0.00 in0.0 mm 0.00 in0.0 mm 0.08 in2.0 mm
04:53 PM 78.4°F25.8°C 59.8°F15.4°C 53% 3.8 mph S6.1 kmh S 7.2 mph11.6 kmh 29.84 in1010.5 mb 0.00 in0.0 mm 0.00 in0.0 mm 0.08 in2.0 mm
04:48 PM 78.4°F25.8°C 59.4°F15.2°C 52% 2.5 mph SE4.0 kmh SE 7.2 mph11.6 kmh 29.84 in1010.5 mb 0.00 in0.0 mm 0.00 in0.0 mm 0.08 in2.0 mm
04:43 PM 78.3°F25.7°C 59.1°F15.1°C 52% 3.3 mph SE5.3 kmh SE 7.4 mph11.9 kmh 29.84 in1010.5 mb 0.00 in0.0 mm 0.00 in0.0 mm 0.08 in2.0 mm
04:38 PM 78.3°F25.7°C 58.4°F14.7°C 51% 2.7 mph SSE4.3 kmh SSE 7.4 mph11.9 kmh 29.84 in1010.5 mb 0.00 in0.0 mm 0.00 in0.0 mm 0.08 in2.0 mm
04:33 PM 78.3°F25.7°C 59.1°F15.1°C 52% 4.0 mph SSE6.4 kmh SSE 6.7 mph10.8 kmh 29.85 in1010.8 mb 0.00 in0.0 mm 0.00 in0.0 mm 0.08 in2.0 mm
04:28 PM 78.1°F25.6°C 58.6°F14.8°C 51% 2.4 mph S3.9 kmh S 7.2 mph11.6 kmh 29.85 in1010.8 mb 0.00 in0.0 mm 0.00 in0.0 mm 0.08 in2.0 mm
04:23 PM 78.3°F25.7°C 58.3°F14.6°C 50% 2.9 mph S4.7 kmh S 7.2 mph11.6 kmh 29.85 in1010.8 mb 0.00 in0.0 mm 0.00 in0.0 mm 0.08 in2.0 mm
04:18 PM 78.3°F25.7°C 57.8°F14.3°C 49% 3.8 mph SSE6.1 kmh SSE 6.3 mph10.1 kmh 29.86 in1011.2 mb 0.00 in0.0 mm 0.00 in0.0 mm 0.08 in2.0 mm
04:13 PM 78.1°F25.6°C 57.7°F14.3°C 49% 2.9 mph S4.7 kmh S 7.8 mph12.6 kmh 29.86 in1011.2 mb 0.00 in0.0 mm 0.00 in0.0 mm 0.08 in2.0 mm
04:08 PM 78.1°F25.6°C 57.7°F14.3°C 49% 4.1 mph S6.6 kmh S 7.8 mph12.6 kmh 29.87 in1011.5 mb 0.00 in0.0 mm 0.00 in0.0 mm 0.08 in2.0 mm
04:03 PM 78.0°F25.6°C 57.8°F14.3°C 50% 3.4 mph S5.5 kmh S 6.3 mph10.1 kmh 29.87 in1011.5 mb 0.00 in0.0 mm 0.00 in0.0 mm 0.08 in2.0 mm
03:58 PM 77.8°F25.4°C 57.7°F14.3°C 50% 2.6 mph SE4.2 kmh SE 6.5 mph10.5 kmh 29.87 in1011.5 mb 0.00 in0.0 mm 0.00 in0.0 mm 0.08 in2.0 mm
03:53 PM 77.6°F25.3°C 57.8°F14.3°C 51% 4.1 mph S6.6 kmh S 6.5 mph10.5 kmh 29.88 in1011.9 mb 0.00 in0.0 mm 0.00 in0.0 mm 0.08 in2.0 mm
03:48 PM 77.5°F25.3°C 58.8°F14.9°C 52% 3.9 mph S6.3 kmh S 7.6 mph12.2 kmh 29.87 in1011.5 mb 0.00 in0.0 mm 0.00 in0.0 mm 0.08 in2.0 mm
03:43 PM 77.6°F25.3°C 59.4°F15.2°C 53% 3.9 mph S6.3 kmh S 8.7 mph14.0 kmh 29.88 in1011.9 mb 0.00 in0.0 mm 0.00 in0.0 mm 0.08 in2.0 mm
03:38 PM 77.8°F25.4°C 60.2°F15.7°C 55% 4.7 mph S7.6 kmh S 8.7 mph14.0 kmh 29.88 in1011.9 mb 0.00 in0.0 mm 0.00 in0.0 mm 0.08 in2.0 mm
03:33 PM 77.9°F25.5°C 62.4°F16.9°C 59% 6.2 mph S10.0 kmh S 8.7 mph14.0 kmh 29.88 in1011.9 mb 0.00 in0.0 mm 0.00 in0.0 mm 0.08 in2.0 mm
03:28 PM 77.6°F25.3°C 64.2°F17.9°C 63% 4.6 mph S7.4 kmh S 10.1 mph16.3 kmh 29.88 in1011.9 mb 0.00 in0.0 mm 0.00 in0.0 mm 0.08 in2.0 mm
03:23 PM 77.2°F25.1°C 65.8°F18.8°C 68% 4.9 mph S7.9 kmh S 10.1 mph16.3 kmh 29.88 in1011.9 mb 0.00 in0.0 mm 0.00 in0.0 mm 0.08 in2.0 mm
03:18 PM 76.8°F24.9°C 66.7°F19.3°C 71% 4.4 mph S7.1 kmh S 10.1 mph16.3 kmh 29.88 in1011.9 mb 0.00 in0.0 mm 0.00 in0.0 mm 0.08 in2.0 mm
03:13 PM 76.0°F24.4°C 66.8°F19.3°C 73% 3.9 mph S6.3 kmh S 10.1 mph16.3 kmh 29.88 in1011.9 mb 0.00 in0.0 mm 0.00 in0.0 mm 0.08 in2.0 mm
03:08 PM 75.5°F24.2°C 67.5°F19.7°C 76% 5.0 mph SE8.0 kmh SE 7.4 mph11.9 kmh 29.88 in1011.9 mb 0.00 in0.0 mm 0.00 in0.0 mm 0.08 in2.0 mm
03:03 PM 74.6°F23.7°C 67.1°F19.5°C 78% 2.9 mph S4.7 kmh S 6.0 mph9.7 kmh 29.88 in1011.9 mb 0.00 in0.0 mm 0.00 in0.0 mm 0.08 in2.0 mm
02:58 PM 73.3°F22.9°C 65.6°F18.7°C 77% 2.9 mph SSW4.7 kmh SSW 4.3 mph6.9 kmh 29.89 in1012.2 mb 0.00 in0.0 mm 0.00 in0.0 mm 0.08 in2.0 mm
02:53 PM 72.5°F22.5°C 64.6°F18.1°C 76% 0.8 mph E1.3 kmh E 4.3 mph6.9 kmh 29.89 in1012.2 mb 0.00 in0.0 mm 0.00 in0.0 mm 0.08 in2.0 mm
02:48 PM 71.6°F22.0°C 63.4°F17.4°C 76% 2.5 mph S4.0 kmh S 5.6 mph9.0 kmh 29.89 in1012.2 mb 0.00 in0.0 mm 0.00 in0.0 mm 0.08 in2.0 mm
02:43 PM 71.0°F21.7°C 62.5°F16.9°C 75% 1.8 mph SSW2.9 kmh SSW 5.6 mph9.0 kmh 29.89 in1012.2 mb 0.00 in0.0 mm 0.00 in0.0 mm 0.08 in2.0 mm
02:38 PM 70.6°F21.4°C 62.0°F16.7°C 74% 1.8 mph SE2.9 kmh SE 5.6 mph9.0 kmh 29.88 in1011.9 mb 0.00 in0.0 mm 0.00 in0.0 mm 0.08 in2.0 mm
02:33 PM 70.3°F21.3°C 61.3°F16.3°C 73% 2.1 mph SE3.4 kmh SE 5.6 mph9.0 kmh 29.89 in1012.2 mb 0.00 in0.0 mm 0.00 in0.0 mm 0.08 in2.0 mm
02:28 PM 70.0°F21.1°C 61.1°F16.2°C 73% 2.1 mph ESE3.4 kmh ESE 6.3 mph10.1 kmh 29.88 in1011.9 mb 0.00 in0.0 mm 0.00 in0.0 mm 0.08 in2.0 mm
02:23 PM 69.8°F21.0°C 60.5°F15.8°C 72% 1.9 mph S3.1 kmh S 6.3 mph10.1 kmh 29.89 in1012.2 mb 0.00 in0.0 mm 0.00 in0.0 mm 0.08 in2.0 mm
02:18 PM 69.5°F20.8°C 60.1°F15.6°C 72% 2.3 mph SE3.7 kmh SE 5.4 mph8.7 kmh 29.91 in1012.9 mb 0.00 in0.0 mm 0.00 in0.0 mm 0.08 in2.0 mm
02:13 PM 69.3°F20.7°C 59.5°F15.3°C 71% 2.1 mph SE3.4 kmh SE 6.0 mph9.7 kmh 29.91 in1012.9 mb 0.00 in0.0 mm 0.00 in0.0 mm 0.08 in2.0 mm
02:08 PM 69.1°F20.6°C 59.3°F15.2°C 71% 2.7 mph SE4.3 kmh SE 6.0 mph9.7 kmh 29.91 in1012.9 mb 0.00 in0.0 mm 0.00 in0.0 mm 0.08 in2.0 mm
02:03 PM 69.0°F20.6°C 58.8°F14.9°C 70% 1.8 mph E2.9 kmh E 3.8 mph6.1 kmh 29.91 in1012.9 mb 0.00 in0.0 mm 0.00 in0.0 mm 0.08 in2.0 mm
01:58 PM 68.8°F20.4°C 58.2°F14.6°C 69% 1.9 mph SW3.1 kmh SW 3.8 mph6.1 kmh 29.93 in1013.5 mb 0.00 in0.0 mm 0.00 in0.0 mm 0.08 in2.0 mm
01:53 PM 68.8°F20.4°C 58.1°F14.5°C 69% 1.6 mph S2.6 kmh S 2.7 mph4.3 kmh 29.93 in1013.5 mb 0.00 in0.0 mm 0.00 in0.0 mm 0.08 in2.0 mm
01:48 PM 68.7°F20.4°C 57.8°F14.3°C 68% 0.5 mph NNE0.8 kmh NNE 2.2 mph3.5 kmh 29.92 in1013.2 mb 0.00 in0.0 mm 0.00 in0.0 mm 0.08 in2.0 mm
01:43 PM 68.8°F20.4°C 57.6°F14.2°C 68% 1.5 mph NE2.4 kmh NE 2.2 mph3.5 kmh 29.92 in1013.2 mb 0.00 in0.0 mm 0.00 in0.0 mm 0.08 in2.0 mm
01:38 PM 68.9°F20.5°C 57.3°F14.1°C 66% 1.2 mph NE1.9 kmh NE 2.2 mph3.5 kmh 29.93 in1013.5 mb 0.00 in0.0 mm 0.00 in0.0 mm 0.08 in2.0 mm
01:33 PM 69.1°F20.6°C 57.3°F14.1°C 66% 0.5 mph NE0.8 kmh NE 1.6 mph2.6 kmh 29.95 in1014.2 mb 0.00 in0.0 mm 0.00 in0.0 mm 0.08 in2.0 mm
01:28 PM 69.2°F20.7°C 56.9°F13.8°C 65% Calm Calm 1.6 mph2.6 kmh 29.96 in1014.6 mb 0.00 in0.0 mm 0.00 in0.0 mm 0.08 in2.0 mm
01:23 PM 69.4°F20.8°C 56.8°F13.8°C 64% 0.5 mph NE0.8 kmh NE 2.7 mph4.3 kmh 29.96 in1014.6 mb 0.00 in0.0 mm 0.00 in0.0 mm 0.08 in2.0 mm
01:18 PM 69.6°F20.9°C 56.6°F13.7°C 63% 1.1 mph NNW1.8 kmh NNW 3.4 mph5.5 kmh 29.96 in1014.6 mb 0.00 in0.0 mm 0.00 in0.0 mm 0.08 in2.0 mm
01:13 PM 69.7°F20.9°C 56.3°F13.5°C 62% 2.5 mph NE4.0 kmh NE 4.3 mph6.9 kmh 29.96 in1014.6 mb 0.00 in0.0 mm 0.00 in0.0 mm 0.08 in2.0 mm
01:08 PM 70.0°F21.1°C 56.3°F13.5°C 62% 3.2 mph NE5.1 kmh NE 4.3 mph6.9 kmh 29.96 in1014.6 mb 0.00 in0.0 mm 0.00 in0.0 mm 0.08 in2.0 mm
01:03 PM 70.2°F21.2°C 56.5°F13.6°C 62% 2.2 mph N3.5 kmh N 3.8 mph6.1 kmh 29.97 in1014.9 mb 0.00 in0.0 mm 0.00 in0.0 mm 0.08 in2.0 mm
12:58 PM 70.3°F21.3°C 56.7°F13.7°C 62% 1.0 mph NNW1.6 kmh NNW 2.9 mph4.7 kmh 29.97 in1014.9 mb 0.00 in0.0 mm 0.00 in0.0 mm 0.08 in2.0 mm
12:53 PM 70.4°F21.3°C 56.2°F13.4°C 61% 1.0 mph ENE1.6 kmh ENE 3.6 mph5.8 kmh 29.97 in1014.9 mb 0.00 in0.0 mm 0.00 in0.0 mm 0.08 in2.0 mm
12:48 PM 70.5°F21.4°C 56.3°F13.5°C 61% 1.4 mph N2.3 kmh N 3.8 mph6.1 kmh 29.97 in1014.9 mb 0.00 in0.0 mm 0.00 in0.0 mm 0.08 in2.0 mm
12:43 PM 70.5°F21.4°C 55.9°F13.3°C 60% 2.8 mph NE4.5 kmh NE 3.8 mph6.1 kmh 29.97 in1014.9 mb 0.00 in0.0 mm 0.00 in0.0 mm 0.08 in2.0 mm
12:38 PM 70.6°F21.4°C 55.9°F13.3°C 60% 2.9 mph NNW4.7 kmh NNW 3.8 mph6.1 kmh 29.97 in1014.9 mb 0.00 in0.0 mm 0.00 in0.0 mm 0.08 in2.0 mm
12:33 PM 70.7°F21.5°C 56.0°F13.3°C 60% 2.7 mph NE4.3 kmh NE 3.8 mph6.1 kmh 29.97 in1014.9 mb 0.00 in0.0 mm 0.00 in0.0 mm 0.08 in2.0 mm
12:28 PM 70.7°F21.5°C 56.0°F13.3°C 60% 1.3 mph NNE2.1 kmh NNE 3.6 mph5.8 kmh 29.98 in1015.2 mb 0.00 in0.0 mm 0.00 in0.0 mm 0.08 in2.0 mm
12:23 PM 70.7°F21.5°C 55.6°F13.1°C 59% 2.0 mph E3.2 kmh E 4.3 mph6.9 kmh 29.97 in1014.9 mb 0.00 in0.0 mm 0.00 in0.0 mm 0.08 in2.0 mm
12:18 PM 70.7°F21.5°C 55.5°F13.1°C 59% 2.2 mph SSE3.5 kmh SSE 4.3 mph6.9 kmh 29.98 in1015.2 mb 0.00 in0.0 mm 0.00 in0.0 mm 0.08 in2.0 mm
12:13 PM 70.7°F21.5°C 55.5°F13.1°C 59% 2.7 mph N4.3 kmh N 4.9 mph7.9 kmh 29.97 in1014.9 mb 0.00 in0.0 mm 0.00 in0.0 mm 0.08 in2.0 mm
12:08 PM 70.7°F21.5°C 55.5°F13.1°C 59% 2.3 mph S3.7 kmh S 4.9 mph7.9 kmh 29.97 in1014.9 mb 0.00 in0.0 mm 0.00 in0.0 mm 0.08 in2.0 mm
12:03 PM 70.7°F21.5°C 55.0°F12.8°C 58% 1.7 mph NE2.7 kmh NE 3.8 mph6.1 kmh 29.97 in1014.9 mb 0.00 in0.0 mm 0.00 in0.0 mm 0.08 in2.0 mm
11:58 AM 70.7°F21.5°C 54.9°F12.7°C 57% 1.9 mph SE3.1 kmh SE 6.3 mph10.1 kmh 29.97 in1014.9 mb 0.00 in0.0 mm 0.00 in0.0 mm 0.08 in2.0 mm
11:53 AM 70.8°F21.6°C 55.0°F12.8°C 57% 3.1 mph NE5.0 kmh NE 6.3 mph10.1 kmh 29.96 in1014.6 mb 0.00 in0.0 mm 0.00 in0.0 mm 0.08 in2.0 mm
11:48 AM 70.9°F21.6°C 55.6°F13.1°C 59% 2.5 mph NE4.0 kmh NE 5.4 mph8.7 kmh 29.96 in1014.6 mb 0.00 in0.0 mm 0.00 in0.0 mm 0.08 in2.0 mm
11:43 AM 71.0°F21.7°C 55.7°F13.2°C 59% 2.6 mph N4.2 kmh N 5.4 mph8.7 kmh 29.97 in1014.9 mb 0.00 in0.0 mm 0.00 in0.0 mm 0.08 in2.0 mm
11:38 AM 70.7°F21.5°C 55.5°F13.1°C 59% 2.6 mph NE4.2 kmh NE 4.0 mph6.4 kmh 29.97 in1014.9 mb 0.00 in0.0 mm 0.00 in0.0 mm 0.08 in2.0 mm
11:33 AM 70.3°F21.3°C 55.0°F12.8°C 58% 2.0 mph N3.2 kmh N 3.8 mph6.1 kmh 29.98 in1015.2 mb 0.00 in0.0 mm 0.00 in0.0 mm 0.08 in2.0 mm
11:28 AM 70.0°F21.1°C 54.8°F12.7°C 59% 2.3 mph NE3.7 kmh NE 5.4 mph8.7 kmh 29.98 in1015.2 mb 0.00 in0.0 mm 0.00 in0.0 mm 0.08 in2.0 mm
11:23 AM 69.6°F20.9°C 54.6°F12.6°C 59% 2.7 mph E4.3 kmh E 5.4 mph8.7 kmh 29.98 in1015.2 mb 0.00 in0.0 mm 0.00 in0.0 mm 0.08 in2.0 mm
11:18 AM 69.2°F20.7°C 54.4°F12.4°C 59% 3.2 mph NE5.1 kmh NE 4.9 mph7.9 kmh 29.98 in1015.2 mb 0.00 in0.0 mm 0.00 in0.0 mm 0.08 in2.0 mm
11:13 AM 68.9°F20.5°C 54.0°F12.2°C 59% 2.9 mph NNE4.7 kmh NNE 4.9 mph7.9 kmh 29.98 in1015.2 mb 0.00 in0.0 mm 0.00 in0.0 mm 0.08 in2.0 mm
11:08 AM 68.6°F20.3°C 53.8°F12.1°C 59% 2.5 mph N4.0 kmh N 6.5 mph10.5 kmh 29.98 in1015.2 mb 0.00 in0.0 mm 0.00 in0.0 mm 0.08 in2.0 mm
11:03 AM 68.3°F20.2°C 53.2°F11.8°C 59% 3.0 mph NE4.8 kmh NE 6.5 mph10.5 kmh 29.98 in1015.2 mb 0.00 in0.0 mm 0.00 in0.0 mm 0.08 in2.0 mm
10:58 AM 68.2°F20.1°C 53.1°F11.7°C 59% 4.0 mph NE6.4 kmh NE 6.3 mph10.1 kmh 29.98 in1015.2 mb 0.00 in0.0 mm 0.00 in0.0 mm 0.08 in2.0 mm
10:53 AM 68.2°F20.1°C 53.2°F11.8°C 59% 3.0 mph NE4.8 kmh NE 5.6 mph9.0 kmh 29.98 in1015.2 mb 0.00 in0.0 mm 0.00 in0.0 mm 0.08 in2.0 mm
10:48 AM 68.0°F20.0°C 52.9°F11.6°C 59% 2.9 mph NNE4.7 kmh NNE 6.5 mph10.5 kmh 29.98 in1015.2 mb 0.00 in0.0 mm 0.00 in0.0 mm 0.08 in2.0 mm
10:43 AM 68.0°F20.0°C 52.9°F11.6°C 59% 3.7 mph NE6.0 kmh NE 6.5 mph10.5 kmh 29.98 in1015.2 mb 0.00 in0.0 mm 0.00 in0.0 mm 0.08 in2.0 mm
10:38 AM 68.1°F20.1°C 53.1°F11.7°C 59% 4.3 mph NNE6.9 kmh NNE 6.5 mph10.5 kmh 29.98 in1015.2 mb 0.00 in0.0 mm 0.00 in0.0 mm 0.08 in2.0 mm
10:33 AM 68.2°F20.1°C 53.5°F11.9°C 59% 2.7 mph NE4.3 kmh NE 6.0 mph9.7 kmh 29.98 in1015.2 mb 0.00 in0.0 mm 0.00 in0.0 mm 0.08 in2.0 mm
10:28 AM 68.1°F20.1°C 54.0°F12.2°C 61% 3.0 mph NE4.8 kmh NE 6.3 mph10.1 kmh 29.98 in1015.2 mb 0.00 in0.0 mm 0.00 in0.0 mm 0.08 in2.0 mm
10:23 AM 67.3°F19.6°C 53.9°F12.2°C 62% 3.7 mph NNE6.0 kmh NNE 6.3 mph10.1 kmh 29.98 in1015.2 mb 0.00 in0.0 mm 0.00 in0.0 mm 0.08 in2.0 mm
10:18 AM 66.7°F19.3°C 53.3°F11.8°C 62% 3.4 mph ENE5.5 kmh ENE 6.3 mph10.1 kmh 29.98 in1015.2 mb 0.00 in0.0 mm 0.00 in0.0 mm 0.08 in2.0 mm
10:13 AM 66.3°F19.1°C 52.9°F11.6°C 62% 3.9 mph NE6.3 kmh NE 7.6 mph12.2 kmh 29.98 in1015.2 mb 0.00 in0.0 mm 0.00 in0.0 mm 0.08 in2.0 mm
10:08 AM 65.7°F18.7°C 52.4°F11.3°C 62% 3.6 mph ENE5.8 kmh ENE 7.6 mph12.2 kmh 29.99 in1015.6 mb 0.00 in0.0 mm 0.00 in0.0 mm 0.08 in2.0 mm
10:03 AM 65.3°F18.5°C 52.1°F11.2°C 62% 3.7 mph NE6.0 kmh NE 7.4 mph11.9 kmh 29.99 in1015.6 mb 0.00 in0.0 mm 0.00 in0.0 mm 0.08 in2.0 mm
09:58 AM 65.3°F18.5°C 51.9°F11.1°C 62% 3.5 mph N5.6 kmh N 6.0 mph9.7 kmh 29.99 in1015.6 mb 0.00 in0.0 mm 0.00 in0.0 mm 0.08 in2.0 mm
09:53 AM 65.5°F18.6°C 52.4°F11.3°C 63% 4.2 mph NE6.8 kmh NE 6.0 mph9.7 kmh 29.99 in1015.6 mb 0.00 in0.0 mm 0.00 in0.0 mm 0.08 in2.0 mm
09:48 AM 65.5°F18.6°C 53.0°F11.7°C 64% 3.7 mph NE6.0 kmh NE 5.8 mph9.3 kmh 29.99 in1015.6 mb 0.00 in0.0 mm 0.00 in0.0 mm 0.08 in2.0 mm
09:43 AM 65.2°F18.4°C 52.7°F11.5°C 64% 4.1 mph NE6.6 kmh NE 5.4 mph8.7 kmh 29.99 in1015.6 mb 0.00 in0.0 mm 0.00 in0.0 mm 0.08 in2.0 mm
09:38 AM 64.9°F18.3°C 53.3°F11.8°C 66% 3.4 mph NE5.5 kmh NE 5.6 mph9.0 kmh 29.99 in1015.6 mb 0.00 in0.0 mm 0.00 in0.0 mm 0.08 in2.0 mm
09:33 AM 64.7°F18.2°C 53.6°F12.0°C 67% 3.9 mph NE6.3 kmh NE 6.3 mph10.1 kmh 29.99 in1015.6 mb 0.00 in0.0 mm 0.00 in0.0 mm 0.08 in2.0 mm
09:28 AM 64.4°F18.0°C 53.9°F12.2°C 69% 3.1 mph NE5.0 kmh NE 6.3 mph10.1 kmh 30.00 in1015.9 mb 0.00 in0.0 mm 0.00 in0.0 mm 0.08 in2.0 mm
09:23 AM 64.2°F17.9°C 54.1°F12.3°C 70% 3.0 mph ENE4.8 kmh ENE 8.7 mph14.0 kmh 30.00 in1015.9 mb 0.00 in0.0 mm 0.00 in0.0 mm 0.08 in2.0 mm
09:18 AM 63.9°F17.7°C 54.0°F12.2°C 70% 3.6 mph NE5.8 kmh NE 8.7 mph14.0 kmh 29.99 in1015.6 mb 0.00 in0.0 mm 0.00 in0.0 mm 0.08 in2.0 mm
09:13 AM 63.2°F17.3°C 53.9°F12.2°C 72% 3.8 mph NE6.1 kmh NE 7.2 mph11.6 kmh 29.99 in1015.6 mb 0.00 in0.0 mm 0.00 in0.0 mm 0.08 in2.0 mm
09:08 AM 62.8°F17.1°C 53.7°F12.1°C 72% 0.9 mph N1.4 kmh N 5.6 mph9.0 kmh 30.00 in1015.9 mb 0.00 in0.0 mm 0.00 in0.0 mm 0.08 in2.0 mm
09:03 AM 62.7°F17.1°C 53.6°F12.0°C 72% 3.1 mph S5.0 kmh S 6.5 mph10.5 kmh 30.00 in1015.9 mb 0.00 in0.0 mm 0.00 in0.0 mm 0.08 in2.0 mm
08:58 AM 62.5°F16.9°C 53.9°F12.2°C 73% 3.8 mph S6.1 kmh S 6.5 mph10.5 kmh 29.99 in1015.6 mb 0.00 in0.0 mm 0.00 in0.0 mm 0.08 in2.0 mm
08:53 AM 62.3°F16.8°C 54.0°F12.2°C 74% 3.7 mph ENE6.0 kmh ENE 5.8 mph9.3 kmh 29.99 in1015.6 mb 0.00 in0.0 mm 0.00 in0.0 mm 0.08 in2.0 mm
08:48 AM 61.9°F16.6°C 53.9°F12.2°C 75% 4.0 mph NE6.4 kmh NE 7.4 mph11.9 kmh 29.99 in1015.6 mb 0.00 in0.0 mm 0.00 in0.0 mm 0.08 in2.0 mm
08:43 AM 61.5°F16.4°C 53.4°F11.9°C 75% 4.7 mph NE7.6 kmh NE 7.4 mph11.9 kmh 29.99 in1015.6 mb 0.00 in0.0 mm 0.00 in0.0 mm 0.08 in2.0 mm
08:38 AM 61.2°F16.2°C 53.4°F11.9°C 76% 3.5 mph N5.6 kmh N 7.4 mph11.9 kmh 29.99 in1015.6 mb 0.00 in0.0 mm 0.00 in0.0 mm 0.08 in2.0 mm
08:33 AM 61.1°F16.2°C 53.3°F11.8°C 76% 4.3 mph NE6.9 kmh NE 8.7 mph14.0 kmh 29.99 in1015.6 mb 0.00 in0.0 mm 0.00 in0.0 mm 0.08 in2.0 mm
08:28 AM 61.0°F16.1°C 53.3°F11.8°C 76% 4.0 mph NE6.4 kmh NE 8.7 mph14.0 kmh 29.99 in1015.6 mb 0.00 in0.0 mm 0.00 in0.0 mm 0.08 in2.0 mm
08:23 AM 61.0°F16.1°C 53.6°F12.0°C 77% 4.8 mph NE7.7 kmh NE 8.1 mph13.0 kmh 29.99 in1015.6 mb 0.00 in0.0 mm 0.00 in0.0 mm 0.08 in2.0 mm
08:18 AM 61.0°F16.1°C 53.7°F12.1°C 77% 5.1 mph NE8.2 kmh NE 7.4 mph11.9 kmh 29.99 in1015.6 mb 0.00 in0.0 mm 0.00 in0.0 mm 0.08 in2.0 mm
08:13 AM 60.9°F16.1°C 54.0°F12.2°C 78% 4.1 mph S6.6 kmh S 8.5 mph13.7 kmh 30.00 in1015.9 mb 0.00 in0.0 mm 0.00 in0.0 mm 0.08 in2.0 mm
08:08 AM 60.8°F16.0°C 54.2°F12.3°C 79% 4.8 mph N7.7 kmh N 8.5 mph13.7 kmh 30.00 in1015.9 mb 0.00 in0.0 mm 0.00 in0.0 mm 0.08 in2.0 mm
08:03 AM 60.7°F15.9°C 54.4°F12.4°C 80% 4.1 mph NE6.6 kmh NE 6.5 mph10.5 kmh 30.00 in1015.9 mb 0.00 in0.0 mm 0.00 in0.0 mm 0.08 in2.0 mm
07:58 AM 60.6°F15.9°C 54.3°F12.4°C 80% 3.8 mph ENE6.1 kmh ENE 7.2 mph11.6 kmh 30.00 in1015.9 mb 0.00 in0.0 mm 0.00 in0.0 mm 0.08 in2.0 mm
07:53 AM 60.4°F15.8°C 54.1°F12.3°C 80% 3.5 mph NE5.6 kmh NE 7.2 mph11.6 kmh 30.00 in1015.9 mb 0.00 in0.0 mm 0.00 in0.0 mm 0.08 in2.0 mm
07:48 AM 60.4°F15.8°C 54.3°F12.4°C 80% 3.6 mph NE5.8 kmh NE 7.2 mph11.6 kmh 30.00 in1015.9 mb 0.00 in0.0 mm 0.00 in0.0 mm 0.08 in2.0 mm
07:43 AM 60.4°F15.8°C 54.3°F12.4°C 80% 3.3 mph NE5.3 kmh NE 7.4 mph11.9 kmh 30.00 in1015.9 mb 0.00 in0.0 mm 0.00 in0.0 mm 0.08 in2.0 mm
07:38 AM 60.6°F15.9°C 54.8°F12.7°C 81% 3.4 mph NE5.5 kmh NE 7.4 mph11.9 kmh 30.00 in1015.9 mb 0.00 in0.0 mm 0.00 in0.0 mm 0.08 in2.0 mm
07:33 AM 60.6°F15.9°C 54.8°F12.7°C 81% 3.9 mph N6.3 kmh N 7.4 mph11.9 kmh 30.01 in1016.3 mb 0.00 in0.0 mm 0.00 in0.0 mm 0.08 in2.0 mm
07:28 AM 60.6°F15.9°C 54.8°F12.7°C 81% 3.2 mph NNE5.1 kmh NNE 5.6 mph9.0 kmh 30.01 in1016.3 mb 0.00 in0.0 mm 0.00 in0.0 mm 0.08 in2.0 mm
07:23 AM 60.6°F15.9°C 54.7°F12.6°C 81% 2.6 mph NNE4.2 kmh NNE 5.8 mph9.3 kmh 30.00 in1015.9 mb 0.00 in0.0 mm 0.00 in0.0 mm 0.08 in2.0 mm
07:18 AM 60.6°F15.9°C 54.4°F12.4°C 80% 3.1 mph NNE5.0 kmh NNE 5.8 mph9.3 kmh 30.00 in1015.9 mb 0.00 in0.0 mm 0.00 in0.0 mm 0.08 in2.0 mm
07:13 AM 60.6°F15.9°C 54.4°F12.4°C 80% 2.9 mph NE4.7 kmh NE 7.4 mph11.9 kmh 30.01 in1016.3 mb 0.00 in0.0 mm 0.00 in0.0 mm 0.08 in2.0 mm
07:08 AM 60.6°F15.9°C 54.4°F12.4°C 80% 3.7 mph N6.0 kmh N 7.4 mph11.9 kmh 30.01 in1016.3 mb 0.00 in0.0 mm 0.00 in0.0 mm 0.08 in2.0 mm
07:03 AM 60.6°F15.9°C 54.4°F12.4°C 80% 3.4 mph N5.5 kmh N 7.4 mph11.9 kmh 30.01 in1016.3 mb 0.00 in0.0 mm 0.00 in0.0 mm 0.08 in2.0 mm
06:58 AM 60.6°F15.9°C 54.1°F12.3°C 79% 3.9 mph NNW6.3 kmh NNW 7.4 mph11.9 kmh 30.01 in1016.3 mb 0.00 in0.0 mm 0.00 in0.0 mm 0.08 in2.0 mm
06:53 AM 60.6°F15.9°C 54.1°F12.3°C 79% 2.7 mph NW4.3 kmh NW 6.5 mph10.5 kmh 30.01 in1016.3 mb 0.00 in0.0 mm 0.00 in0.0 mm 0.08 in2.0 mm
06:48 AM 60.6°F15.9°C 54.1°F12.3°C 79% 3.2 mph N5.1 kmh N 6.0 mph9.7 kmh 30.01 in1016.3 mb 0.00 in0.0 mm 0.00 in0.0 mm 0.08 in2.0 mm
06:43 AM 60.6°F15.9°C 53.7°F12.1°C 78% 3.5 mph NNW5.6 kmh NNW 4.3 mph6.9 kmh 30.01 in1016.3 mb 0.00 in0.0 mm 0.00 in0.0 mm 0.08 in2.0 mm
06:38 AM 60.6°F15.9°C 53.9°F12.2°C 79% 1.8 mph NE2.9 kmh NE 7.2 mph11.6 kmh 30.00 in1015.9 mb 0.00 in0.0 mm 0.00 in0.0 mm 0.08 in2.0 mm
06:33 AM 60.6°F15.9°C 54.1°F12.3°C 79% 3.2 mph NNE5.1 kmh NNE 7.2 mph11.6 kmh 30.00 in1015.9 mb 0.00 in0.0 mm 0.00 in0.0 mm 0.08 in2.0 mm
06:28 AM 60.6°F15.9°C 54.1°F12.3°C 79% 4.0 mph NNW6.4 kmh NNW 7.2 mph11.6 kmh 30.01 in1016.3 mb 0.00 in0.0 mm 0.00 in0.0 mm 0.08 in2.0 mm
06:23 AM 60.6°F15.9°C 54.1°F12.3°C 79% 3.6 mph N5.8 kmh N 5.6 mph9.0 kmh 30.01 in1016.3 mb 0.00 in0.0 mm 0.00 in0.0 mm 0.08 in2.0 mm
06:18 AM 60.6°F15.9°C 54.3°F12.4°C 80% 3.7 mph NNW6.0 kmh NNW 6.5 mph10.5 kmh 30.01 in1016.3 mb 0.00 in0.0 mm 0.00 in0.0 mm 0.08 in2.0 mm
06:13 AM 60.6°F15.9°C 54.9°F12.7°C 81% 3.2 mph NE5.1 kmh NE 9.8 mph15.8 kmh 30.00 in1015.9 mb 0.00 in0.0 mm 0.00 in0.0 mm 0.08 in2.0 mm
06:08 AM 60.6°F15.9°C 55.7°F13.2°C 84% 5.4 mph N8.7 kmh N 9.8 mph15.8 kmh 30.01 in1016.3 mb 0.00 in0.0 mm 0.00 in0.0 mm 0.08 in2.0 mm
06:03 AM 60.5°F15.8°C 53.8°F12.1°C 79% 3.8 mph NNW6.1 kmh NNW 5.4 mph8.7 kmh 30.01 in1016.3 mb 0.00 in0.0 mm 0.00 in0.0 mm 0.08 in2.0 mm
05:58 AM 60.4°F15.8°C 52.7°F11.5°C 76% 1.2 mph ENE1.9 kmh ENE 3.1 mph5.0 kmh 29.99 in1015.6 mb 0.00 in0.0 mm 0.00 in0.0 mm 0.08 in2.0 mm
05:53 AM 60.4°F15.8°C 52.7°F11.5°C 76% 0.7 mph ENE1.1 kmh ENE 3.1 mph5.0 kmh 29.99 in1015.6 mb 0.00 in0.0 mm 0.00 in0.0 mm 0.08 in2.0 mm
05:48 AM 60.4°F15.8°C 52.7°F11.5°C 76% 1.0 mph N1.6 kmh N 2.5 mph4.0 kmh 29.99 in1015.6 mb 0.00 in0.0 mm 0.00 in0.0 mm 0.08 in2.0 mm
05:43 AM 60.4°F15.8°C 52.7°F11.5°C 76% Calm Calm 2.7 mph4.3 kmh 29.99 in1015.6 mb 0.00 in0.0 mm 0.00 in0.0 mm 0.08 in2.0 mm
05:38 AM 60.4°F15.8°C 52.4°F11.3°C 75% 1.7 mph N2.7 kmh N 2.7 mph4.3 kmh 29.99 in1015.6 mb 0.00 in0.0 mm 0.00 in0.0 mm 0.08 in2.0 mm
05:33 AM 60.4°F15.8°C 52.6°F11.4°C 75% 1.1 mph N1.8 kmh N 2.0 mph3.2 kmh 29.99 in1015.6 mb 0.00 in0.0 mm 0.00 in0.0 mm 0.08 in2.0 mm
05:28 AM 60.4°F15.8°C 52.3°F11.3°C 74% 1.0 mph N1.6 kmh N 2.2 mph3.5 kmh 29.98 in1015.2 mb 0.00 in0.0 mm 0.00 in0.0 mm 0.08 in2.0 mm
05:23 AM 60.4°F15.8°C 52.3°F11.3°C 74% 1.0 mph N1.6 kmh N 3.1 mph5.0 kmh 29.98 in1015.2 mb 0.00 in0.0 mm 0.00 in0.0 mm 0.08 in2.0 mm
05:18 AM 60.4°F15.8°C 52.3°F11.3°C 74% 1.9 mph NE3.1 kmh NE 3.1 mph5.0 kmh 29.98 in1015.2 mb 0.00 in0.0 mm 0.00 in0.0 mm 0.08 in2.0 mm
05:13 AM 60.3°F15.7°C 51.8°F11.0°C 73% 1.0 mph ENE1.6 kmh ENE 2.9 mph4.7 kmh 29.97 in1014.9 mb 0.00 in0.0 mm 0.00 in0.0 mm 0.08 in2.0 mm
05:08 AM 60.3°F15.7°C 51.7°F10.9°C 73% 1.3 mph ENE2.1 kmh ENE 2.9 mph4.7 kmh 29.97 in1014.9 mb 0.00 in0.0 mm 0.00 in0.0 mm 0.08 in2.0 mm
05:03 AM 60.2°F15.7°C 51.6°F10.9°C 73% Calm Calm 2.9 mph4.7 kmh 29.98 in1015.2 mb 0.00 in0.0 mm 0.00 in0.0 mm 0.08 in2.0 mm
04:58 AM 60.1°F15.6°C 51.2°F10.7°C 72% 0.4 mph NE0.6 kmh NE 3.4 mph5.5 kmh 29.97 in1014.9 mb 0.00 in0.0 mm 0.00 in0.0 mm 0.08 in2.0 mm
04:53 AM 60.1°F15.6°C 50.8°F10.4°C 71% 2.0 mph NE3.2 kmh NE 3.4 mph5.5 kmh 29.96 in1014.6 mb 0.00 in0.0 mm 0.00 in0.0 mm 0.08 in2.0 mm
04:48 AM 60.1°F15.6°C 50.6°F10.3°C 71% 1.9 mph NE3.1 kmh NE 3.1 mph5.0 kmh 29.96 in1014.6 mb 0.08 in2.0 mm 0.00 in0.0 mm 0.08 in2.0 mm
04:43 AM 60.1°F15.6°C 50.2°F10.1°C 70% 1.8 mph NE2.9 kmh NE 4.0 mph6.4 kmh 29.96 in1014.6 mb 0.08 in2.0 mm 0.00 in0.0 mm 0.08 in2.0 mm
04:38 AM 60.1°F15.6°C 49.6°F9.8°C 68% 3.2 mph NE5.1 kmh NE 4.0 mph6.4 kmh 29.97 in1014.9 mb 0.08 in2.0 mm 0.00 in0.0 mm 0.08 in2.0 mm
04:33 AM 60.1°F15.6°C 48.9°F9.4°C 66% 1.7 mph N2.7 kmh N 3.1 mph5.0 kmh 29.96 in1014.6 mb 0.08 in2.0 mm 0.00 in0.0 mm 0.08 in2.0 mm
04:28 AM 60.1°F15.6°C 48.5°F9.2°C 65% 1.0 mph NNW1.6 kmh NNW 2.2 mph3.5 kmh 29.98 in1015.2 mb 0.08 in2.0 mm 0.00 in0.0 mm 0.08 in2.0 mm
04:23 AM 60.3°F15.7°C 48.2°F9.0°C 64% Calm Calm 2.7 mph4.3 kmh 29.98 in1015.2 mb 0.08 in2.0 mm 0.00 in0.0 mm 0.08 in2.0 mm
04:18 AM 60.5°F15.8°C 48.4°F9.1°C 64% 0.6 mph N1.0 kmh N 3.6 mph5.8 kmh 29.98 in1015.2 mb 0.08 in2.0 mm 0.00 in0.0 mm 0.08 in2.0 mm
04:13 AM 60.8°F16.0°C 47.8°F8.8°C 62% 1.5 mph NE2.4 kmh NE 3.8 mph6.1 kmh 29.98 in1015.2 mb 0.08 in2.0 mm 0.00 in0.0 mm 0.08 in2.0 mm
04:08 AM 61.1°F16.2°C 47.5°F8.6°C 61% 0.9 mph N1.4 kmh N 3.8 mph6.1 kmh 29.97 in1014.9 mb 0.08 in2.0 mm 0.00 in0.0 mm 0.08 in2.0 mm
04:03 AM 61.5°F16.4°C 47.6°F8.7°C 60% 0.9 mph NNE1.4 kmh NNE 3.8 mph6.1 kmh 29.98 in1015.2 mb 0.08 in2.0 mm 0.00 in0.0 mm 0.08 in2.0 mm
03:58 AM 62.1°F16.7°C 47.8°F8.8°C 59% Calm Calm 3.8 mph6.1 kmh 29.97 in1014.9 mb 0.08 in2.0 mm 0.00 in0.0 mm 0.08 in2.0 mm
03:53 AM 63.0°F17.2°C 47.6°F8.7°C 57% 2.1 mph E3.4 kmh E 3.8 mph6.1 kmh 29.97 in1014.9 mb 0.08 in2.0 mm 0.96 in24.4 mm 0.08 in2.0 mm
03:48 AM 63.2°F17.3°C 46.8°F8.2°C 55% 1.8 mph ENE2.9 kmh ENE 3.8 mph6.1 kmh 29.97 in1014.9 mb 0.00 in0.0 mm 0.00 in0.0 mm 0.00 in0.0 mm
03:43 AM 63.1°F17.3°C 46.8°F8.2°C 55% 0.6 mph SE1.0 kmh SE 2.9 mph4.7 kmh 29.98 in1015.2 mb 0.00 in0.0 mm 0.00 in0.0 mm 0.00 in0.0 mm
03:38 AM 63.0°F17.2°C 46.7°F8.2°C 55% 0.6 mph SE1.0 kmh SE 3.4 mph5.5 kmh 29.99 in1015.6 mb 0.00 in0.0 mm 0.00 in0.0 mm 0.00 in0.0 mm
03:33 AM 63.0°F17.2°C 46.6°F8.1°C 55% 2.0 mph SSE3.2 kmh SSE 3.4 mph5.5 kmh 29.99 in1015.6 mb 0.00 in0.0 mm 0.00 in0.0 mm 0.00 in0.0 mm
03:28 AM 63.0°F17.2°C 46.6°F8.1°C 55% 1.1 mph SE1.8 kmh SE 2.2 mph3.5 kmh 29.98 in1015.2 mb 0.00 in0.0 mm 0.00 in0.0 mm 0.00 in0.0 mm
03:23 AM 63.0°F17.2°C 46.5°F8.1°C 55% 0.6 mph ENE1.0 kmh ENE 2.7 mph4.3 kmh 29.97 in1014.9 mb 0.00 in0.0 mm 0.00 in0.0 mm 0.00 in0.0 mm
03:18 AM 63.0°F17.2°C 46.1°F7.8°C 54% 1.2 mph ENE1.9 kmh ENE 2.9 mph4.7 kmh 29.96 in1014.6 mb 0.00 in0.0 mm 0.00 in0.0 mm 0.00 in0.0 mm
03:13 AM 63.0°F17.2°C 46.1°F7.8°C 54% 1.7 mph NE2.7 kmh NE 2.9 mph4.7 kmh 29.95 in1014.2 mb 0.00 in0.0 mm 0.00 in0.0 mm 0.00 in0.0 mm
03:08 AM 63.1°F17.3°C 46.2°F7.9°C 54% 1.7 mph ENE2.7 kmh ENE 2.9 mph4.7 kmh 29.96 in1014.6 mb 0.00 in0.0 mm 0.00 in0.0 mm 0.00 in0.0 mm
03:03 AM 63.1°F17.3°C 45.9°F7.7°C 53% 1.6 mph NE2.6 kmh NE 2.9 mph4.7 kmh 29.96 in1014.6 mb 0.00 in0.0 mm 0.00 in0.0 mm 0.00 in0.0 mm
02:58 AM 63.1°F17.3°C 45.7°F7.6°C 53% 1.6 mph NE2.6 kmh NE 3.4 mph5.5 kmh 29.96 in1014.6 mb 0.00 in0.0 mm 0.00 in0.0 mm 0.00 in0.0 mm
02:53 AM 63.3°F17.4°C 45.8°F7.7°C 53% 1.7 mph ENE2.7 kmh ENE 3.4 mph5.5 kmh 29.96 in1014.6 mb 0.00 in0.0 mm 0.00 in0.0 mm 0.00 in0.0 mm
02:48 AM 63.3°F17.4°C 45.9°F7.7°C 53% 2.0 mph NE3.2 kmh NE 3.6 mph5.8 kmh 29.97 in1014.9 mb 0.00 in0.0 mm 0.00 in0.0 mm 0.00 in0.0 mm
02:43 AM 63.2°F17.3°C 45.7°F7.6°C 53% 1.8 mph NE2.9 kmh NE 3.6 mph5.8 kmh 29.97 in1014.9 mb 0.00 in0.0 mm 0.00 in0.0 mm 0.00 in0.0 mm
02:38 AM 63.1°F17.3°C 45.7°F7.6°C 53% 1.6 mph NE2.6 kmh NE 3.6 mph5.8 kmh 29.96 in1014.6 mb 0.00 in0.0 mm 0.00 in0.0 mm 0.00 in0.0 mm
02:33 AM 63.1°F17.3°C 46.0°F7.8°C 53% 2.5 mph NE4.0 kmh NE 3.8 mph6.1 kmh 29.96 in1014.6 mb 0.00 in0.0 mm 0.00 in0.0 mm 0.00 in0.0 mm
02:28 AM 63.1°F17.3°C 46.2°F7.9°C 54% 2.5 mph NE4.0 kmh NE 3.8 mph6.1 kmh 29.96 in1014.6 mb 0.00 in0.0 mm 0.00 in0.0 mm 0.00 in0.0 mm
02:23 AM 63.1°F17.3°C 46.2°F7.9°C 54% 1.7 mph NNE2.7 kmh NNE 2.9 mph4.7 kmh 29.96 in1014.6 mb 0.00 in0.0 mm 0.00 in0.0 mm 0.00 in0.0 mm
02:18 AM 63.0°F17.2°C 46.1°F7.8°C 54% 1.3 mph NE2.1 kmh NE 2.9 mph4.7 kmh 29.97 in1014.9 mb 0.00 in0.0 mm 0.00 in0.0 mm 0.00 in0.0 mm
02:13 AM 63.0°F17.2°C 46.1°F7.8°C 54% 1.7 mph NE2.7 kmh NE 2.9 mph4.7 kmh 29.98 in1015.2 mb 0.00 in0.0 mm 0.00 in0.0 mm 0.00 in0.0 mm
02:08 AM 63.0°F17.2°C 46.5°F8.1°C 55% 0.4 mph ENE0.6 kmh ENE 2.2 mph3.5 kmh 29.98 in1015.2 mb 0.00 in0.0 mm 0.00 in0.0 mm 0.00 in0.0 mm
02:03 AM 63.0°F17.2°C 46.6°F8.1°C 55% 1.2 mph ENE1.9 kmh ENE 4.3 mph6.9 kmh 29.98 in1015.2 mb 0.00 in0.0 mm 0.00 in0.0 mm 0.00 in0.0 mm
01:58 AM 63.0°F17.2°C 46.6°F8.1°C 55% 2.0 mph NE3.2 kmh NE 4.3 mph6.9 kmh 29.98 in1015.2 mb 0.00 in0.0 mm 0.00 in0.0 mm 0.00 in0.0 mm
01:53 AM 62.8°F17.1°C 46.5°F8.1°C 55% 1.6 mph NE2.6 kmh NE 2.7 mph4.3 kmh 29.98 in1015.2 mb 0.00 in0.0 mm 0.00 in0.0 mm 0.00 in0.0 mm
01:48 AM 62.8°F17.1°C 46.5°F8.1°C 55% 1.2 mph NE1.9 kmh NE 2.9 mph4.7 kmh 29.98 in1015.2 mb 0.00 in0.0 mm 0.00 in0.0 mm 0.00 in0.0 mm
01:43 AM 62.6°F17.0°C 46.7°F8.2°C 56% 1.1 mph ENE1.8 kmh ENE 2.9 mph4.7 kmh 29.99 in1015.6 mb 0.00 in0.0 mm 0.00 in0.0 mm 0.00 in0.0 mm
01:38 AM 62.4°F16.9°C 46.7°F8.2°C 56% 0.5 mph ENE0.8 kmh ENE 2.2 mph3.5 kmh 29.99 in1015.6 mb 0.00 in0.0 mm 0.00 in0.0 mm 0.00 in0.0 mm
01:33 AM 62.4°F16.9°C 46.9°F8.3°C 57% 0.7 mph E1.1 kmh E 2.5 mph4.0 kmh 29.99 in1015.6 mb 0.00 in0.0 mm 0.00 in0.0 mm 0.00 in0.0 mm
01:28 AM 62.3°F16.8°C 47.1°F8.4°C 57% 1.0 mph NE1.6 kmh NE 2.5 mph4.0 kmh 29.99 in1015.6 mb 0.00 in0.0 mm 0.00 in0.0 mm 0.00 in0.0 mm
01:23 AM 62.2°F16.8°C 47.0°F8.3°C 57% 0.9 mph ENE1.4 kmh ENE 2.0 mph3.2 kmh 29.99 in1015.6 mb 0.00 in0.0 mm 0.00 in0.0 mm 0.00 in0.0 mm
01:18 AM 62.2°F16.8°C 47.3°F8.5°C 58% 0.5 mph ENE0.8 kmh ENE 2.0 mph3.2 kmh 29.99 in1015.6 mb 0.00 in0.0 mm 0.00 in0.0 mm 0.00 in0.0 mm
01:13 AM 62.2°F16.8°C 47.5°F8.6°C 59% Calm Calm 0.9 mph1.4 kmh 29.99 in1015.6 mb 0.00 in0.0 mm 0.00 in0.0 mm 0.00 in0.0 mm
01:08 AM 62.2°F16.8°C 47.5°F8.6°C 59% Calm Calm 0.9 mph1.4 kmh 29.99 in1015.6 mb 0.00 in0.0 mm 0.00 in0.0 mm 0.00 in0.0 mm
01:03 AM 62.2°F16.8°C 47.3°F8.5°C 58% Calm Calm -- 29.99 in1015.6 mb 0.00 in0.0 mm 0.00 in0.0 mm 0.00 in0.0 mm
12:58 AM 62.1°F16.7°C 47.1°F8.4°C 58% Calm Calm 1.1 mph1.8 kmh 29.99 in1015.6 mb 0.00 in0.0 mm 0.00 in0.0 mm 0.00 in0.0 mm
12:53 AM 62.1°F16.7°C 46.9°F8.3°C 57% Calm Calm 1.1 mph1.8 kmh 29.99 in1015.6 mb 0.00 in0.0 mm 0.00 in0.0 mm 0.00 in0.0 mm
12:48 AM 62.1°F16.7°C 46.9°F8.3°C 57% Calm Calm 0.9 mph1.4 kmh 29.99 in1015.6 mb 0.00 in0.0 mm 0.00 in0.0 mm 0.00 in0.0 mm
12:43 AM 62.1°F16.7°C 46.9°F8.3°C 57% Calm Calm 1.3 mph2.1 kmh 30.00 in1015.9 mb 0.00 in0.0 mm 0.00 in0.0 mm 0.00 in0.0 mm
12:38 AM 62.2°F16.8°C 46.5°F8.1°C 56% 0.4 mph ENE0.6 kmh ENE 1.3 mph2.1 kmh 29.99 in1015.6 mb 0.00 in0.0 mm 0.00 in0.0 mm 0.00 in0.0 mm
12:33 AM 62.1°F16.7°C 46.1°F7.8°C 56% Calm Calm -- 29.99 in1015.6 mb 0.00 in0.0 mm 0.00 in0.0 mm 0.00 in0.0 mm
12:28 AM 62.1°F16.7°C 45.8°F7.7°C 55% Calm Calm -- 30.00 in1015.9 mb 0.00 in0.0 mm 0.00 in0.0 mm 0.00 in0.0 mm
12:23 AM 62.1°F16.7°C 45.4°F7.4°C 54% Calm Calm -- 30.00 in1015.9 mb 0.00 in0.0 mm 0.00 in0.0 mm 0.00 in0.0 mm
12:18 AM 62.2°F16.8°C 45.4°F7.4°C 54% Calm Calm -- 30.00 in1015.9 mb 0.00 in0.0 mm 0.00 in0.0 mm 0.00 in0.0 mm
12:13 AM 62.2°F16.8°C 45.4°F7.4°C 54% Calm Calm -- 30.00 in1015.9 mb 0.00 in0.0 mm 0.00 in0.0 mm 0.00 in0.0 mm
12:08 AM 62.2°F16.8°C 45.1°F7.3°C 53% Calm Calm -- 30.00 in1015.9 mb 0.00 in0.0 mm 0.00 in0.0 mm 0.00 in0.0 mm
12:03 AM 62.2°F16.8°C 44.9°F7.2°C 53% Calm Calm -- 30.00 in1015.9 mb 0.00 in0.0 mm 0.00 in0.0 mm 0.00 in0.0 mm